Time;durP1;ratioP1;P1;durP2;ratioP2;P2;SDS_P1;SDS_P2;PMS_P1;PMS_P2;Temp;Humidity;BMP_temperature;BMP_pressure;BME280_temperature;BME280_humidity;BME280_pressure;Samples;Min_cycle;Max_cycle;Signal;HPM_P1;HPM_P2
2023/07/12 00:01:30;;;;;;;12.80;9.00;;;;;;;;;;112623;1230;58971;-69
2023/07/12 00:03:56;;;;;;;10.30;8.50;;;;;;;;;;112551;1229;59274;-69
2023/07/12 00:06:48;;;;;;;12.40;9.10;;;;;;;;;;112610;1230;58891;-69
2023/07/12 00:09:14;;;;;;;11.00;7.90;;;;;;;;;;111844;1237;58986;-70
2023/07/12 00:11:40;;;;;;;10.00;8.30;;;;;;;;;;111808;1237;59027;-70
2023/07/12 00:14:05;;;;;;;11.10;8.30;;;;;;;;;;111822;1237;59033;-70
2023/07/12 00:16:35;;;;;;;8.80;8.00;;;;;;;;;;111803;1238;58962;-70
2023/07/12 00:19:02;;;;;;;11.00;8.10;;;;;;;;;;111828;1238;59020;-69
2023/07/12 00:21:29;;;;;;;10.20;7.50;;;;;;;;;;111856;1237;59116;-69
2023/07/12 00:23:56;;;;;;;8.80;7.40;;;;;;;;;;111843;1237;61942;-69
2023/07/12 00:26:24;;;;;;;9.20;8.30;;;;;;;;;;111852;1237;58970;-69
2023/07/12 00:28:50;;;;;;;12.60;8.50;;;;;;;;;;111821;1237;59869;-69
2023/07/12 00:31:15;;;;;;;9.10;8.20;;;;;;;;;;111829;1237;59058;-70
2023/07/12 00:33:41;;;;;;;9.20;8.00;;;;;;;;;;111822;1237;59005;-70
2023/07/12 00:36:11;;;;;;;10.80;8.00;;;;;;;;;;111811;1237;59200;-70
2023/07/12 00:38:37;;;;;;;10.40;8.30;;;;;;;;;;111863;1237;59311;-69
2023/07/12 00:41:15;;;;;;;11.20;8.10;;;;;;;;;;111846;1237;59034;-70
2023/07/12 00:43:46;;;;;;;8.40;7.60;;;;;;;;;;111845;1237;59328;-70
2023/07/12 00:46:15;;;;;;;9.70;7.80;;;;;;;;;;112190;1230;58973;-69
2023/07/12 00:48:41;;;;;;;9.20;8.20;;;;;;;;;;112575;1229;61990;-70
2023/07/12 00:51:22;;;;;;;10.30;8.80;;;;;;;;;;112628;1229;58861;-70
2023/07/12 00:53:48;;;;;;;9.50;8.50;;;;;;;;;;112596;1230;59734;-70
2023/07/12 00:56:13;;;;;;;10.20;9.10;;;;;;;;;;112642;1230;58930;-69
2023/07/12 00:58:42;;;;;;;9.90;8.90;;;;;;;;;;112601;1230;58950;-70
2023/07/12 01:01:08;;;;;;;10.20;8.10;;;;;;;;;;112605;1230;62018;-70
2023/07/12 01:03:36;;;;;;;10.30;8.20;;;;;;;;;;112617;1229;58793;-70
2023/07/12 01:06:02;;;;;;;8.60;7.70;;;;;;;;;;112309;1229;59341;-69
2023/07/12 01:08:29;;;;;;;8.40;7.30;;;;;;;;;;112537;1230;58939;-70
2023/07/12 01:10:56;;;;;;;8.00;7.20;;;;;;;;;;112597;1231;59084;-69
2023/07/12 01:13:22;;;;;;;8.90;7.00;;;;;;;;;;112632;1231;58986;-70
2023/07/12 01:15:48;;;;;;;9.20;7.50;;;;;;;;;;112619;1231;58895;-70
2023/07/12 01:18:14;;;;;;;8.30;7.10;;;;;;;;;;112607;1230;59377;-70
2023/07/12 01:20:41;;;;;;;11.10;7.00;;;;;;;;;;112558;1231;58867;-70
2023/07/12 01:23:06;;;;;;;8.30;7.40;;;;;;;;;;112660;1229;58863;-69
2023/07/12 01:25:38;;;;;;;8.80;7.60;;;;;;;;;;112609;1230;59037;-70
2023/07/12 01:28:04;;;;;;;8.80;7.70;;;;;;;;;;112605;1230;58810;-70
2023/07/12 01:30:30;;;;;;;9.60;7.40;;;;;;;;;;112521;1230;59042;-70
2023/07/12 01:32:55;;;;;;;9.80;7.90;;;;;;;;;;112570;1229;58916;-70
2023/07/12 01:35:21;;;;;;;8.00;7.10;;;;;;;;;;112609;1231;58970;-70
2023/07/12 01:37:47;;;;;;;10.30;7.90;;;;;;;;;;112660;1230;58892;-70
2023/07/12 01:40:12;;;;;;;10.90;9.30;;;;;;;;;;112577;1230;58856;-69
2023/07/12 01:42:38;;;;;;;10.70;8.50;;;;;;;;;;112620;1230;58930;-71
2023/07/12 01:45:04;;;;;;;10.30;9.20;;;;;;;;;;112266;1230;59001;-70
2023/07/12 01:47:30;;;;;;;9.60;8.40;;;;;;;;;;112636;1229;58940;-70
2023/07/12 01:49:56;;;;;;;9.30;8.40;;;;;;;;;;112621;1230;58985;-70
2023/07/12 01:52:22;;;;;;;8.90;7.90;;;;;;;;;;112256;1229;59147;-71
2023/07/12 01:54:49;;;;;;;9.40;7.90;;;;;;;;;;112611;1230;58880;-70
2023/07/12 01:57:15;;;;;;;9.50;8.30;;;;;;;;;;112605;1229;58923;-70
2023/07/12 01:59:41;;;;;;;9.30;8.20;;;;;;;;;;112636;1230;58909;-70
2023/07/12 02:02:07;;;;;;;8.60;7.50;;;;;;;;;;112641;1229;59170;-70
2023/07/12 02:04:33;;;;;;;9.30;8.00;;;;;;;;;;112573;1230;58927;-71
2023/07/12 02:06:58;;;;;;;9.00;8.20;;;;;;;;;;112678;1230;59795;-70
2023/07/12 02:09:27;;;;;;;10.70;9.20;;;;;;;;;;112574;1231;61943;-70
2023/07/12 02:11:52;;;;;;;9.80;8.30;;;;;;;;;;112595;1229;58907;-70
2023/07/12 02:14:18;;;;;;;9.30;8.40;;;;;;;;;;112265;1233;59074;-70
2023/07/12 02:16:44;;;;;;;7.90;7.10;;;;;;;;;;112611;1230;58910;-70
2023/07/12 02:19:09;;;;;;;9.60;8.60;;;;;;;;;;112597;1229;59250;-70
2023/07/12 02:21:35;;;;;;;11.50;8.80;;;;;;;;;;112482;1230;59001;-69
2023/07/12 02:24:02;;;;;;;10.50;8.20;;;;;;;;;;112673;1230;58983;-69
2023/07/12 02:26:28;;;;;;;12.30;8.50;;;;;;;;;;112590;1231;58955;-69
2023/07/12 02:28:54;;;;;;;12.00;8.90;;;;;;;;;;112584;1230;59456;-70
2023/07/12 02:31:23;;;;;;;9.20;8.10;;;;;;;;;;112565;1230;58939;-70
2023/07/12 02:33:50;;;;;;;9.70;8.10;;;;;;;;;;112646;1230;58777;-71
2023/07/12 02:36:16;;;;;;;9.40;8.10;;;;;;;;;;112573;1230;58897;-70
2023/07/12 02:38:42;;;;;;;11.20;8.10;;;;;;;;;;112531;1231;59391;-70
2023/07/12 02:41:08;;;;;;;11.60;8.30;;;;;;;;;;112619;1230;58953;-70
2023/07/12 02:43:34;;;;;;;11.00;8.40;;;;;;;;;;112609;1232;58919;-69
2023/07/12 02:46:00;;;;;;;9.30;8.00;;;;;;;;;;112630;1231;58947;-71
2023/07/12 02:48:26;;;;;;;9.30;8.20;;;;;;;;;;112615;1231;58963;-70
2023/07/12 02:50:52;;;;;;;10.70;8.60;;;;;;;;;;112627;1230;58868;-70
2023/07/12 02:53:19;;;;;;;10.10;9.00;;;;;;;;;;112604;1230;59116;-70
2023/07/12 02:55:48;;;;;;;9.30;8.10;;;;;;;;;;112590;1229;58966;-70
2023/07/12 02:58:14;;;;;;;10.50;9.40;;;;;;;;;;112590;1230;59166;-70
2023/07/12 03:00:40;;;;;;;9.00;7.60;;;;;;;;;;112608;1229;59238;-70
2023/07/12 03:03:06;;;;;;;8.90;7.70;;;;;;;;;;112580;1231;58876;-70
2023/07/12 03:05:35;;;;;;;8.60;7.70;;;;;;;;;;112631;1230;58909;-70
2023/07/12 03:08:01;;;;;;;8.40;7.50;;;;;;;;;;112622;1230;61799;-70
2023/07/12 03:10:27;;;;;;;8.90;8.10;;;;;;;;;;112631;1230;58936;-70
2023/07/12 03:12:54;;;;;;;9.10;7.20;;;;;;;;;;112615;1229;58935;-70
2023/07/12 03:15:20;;;;;;;9.60;7.90;;;;;;;;;;112613;1231;58871;-70
2023/07/12 03:17:46;;;;;;;7.80;7.00;;;;;;;;;;112600;1230;58940;-70
2023/07/12 03:20:12;;;;;;;10.70;7.20;;;;;;;;;;112608;1233;58892;-72
2023/07/12 03:22:37;;;;;;;8.90;6.90;;;;;;;;;;112660;1230;58981;-70
2023/07/12 03:25:03;;;;;;;8.80;7.10;;;;;;;;;;112617;1229;59254;-70
2023/07/12 03:27:29;;;;;;;7.80;6.50;;;;;;;;;;112664;1230;58990;-70
2023/07/12 03:29:55;;;;;;;8.20;6.60;;;;;;;;;;112633;1231;60575;-70
2023/07/12 03:32:20;;;;;;;7.40;6.60;;;;;;;;;;112592;1232;58832;-70
2023/07/12 03:34:46;;;;;;;8.50;6.00;;;;;;;;;;112569;1230;58891;-70
2023/07/12 03:37:12;;;;;;;8.80;6.70;;;;;;;;;;112605;1230;58956;-70
2023/07/12 03:39:38;;;;;;;7.20;6.10;;;;;;;;;;112645;1230;58985;-70
2023/07/12 03:42:04;;;;;;;8.90;6.20;;;;;;;;;;112602;1229;58948;-70
2023/07/12 03:44:30;;;;;;;7.40;6.60;;;;;;;;;;112640;1230;58884;-71
2023/07/12 03:46:56;;;;;;;6.60;6.00;;;;;;;;;;112440;1231;58994;-70
2023/07/12 03:49:22;;;;;;;10.00;6.20;;;;;;;;;;112596;1229;58846;-70
2023/07/12 03:51:47;;;;;;;6.90;6.20;;;;;;;;;;112603;1230;58956;-71
2023/07/12 03:54:14;;;;;;;8.10;6.50;;;;;;;;;;112657;1230;58860;-71
2023/07/12 03:56:40;;;;;;;7.80;6.70;;;;;;;;;;112567;1231;59042;-71
2023/07/12 03:59:06;;;;;;;7.90;5.90;;;;;;;;;;112583;1231;58916;-70
2023/07/12 04:01:32;;;;;;;9.20;6.60;;;;;;;;;;112626;1230;58926;-72
2023/07/12 04:03:58;;;;;;;8.60;6.60;;;;;;;;;;112630;1233;58897;-71
2023/07/12 04:06:24;;;;;;;8.10;6.40;;;;;;;;;;112593;1230;58879;-71
2023/07/12 04:08:49;;;;;;;9.10;6.90;;;;;;;;;;112650;1230;58970;-70
2023/07/12 04:11:23;;;;;;;9.30;7.20;;;;;;;;;;112597;1230;58876;-71
2023/07/12 04:13:48;;;;;;;8.10;7.40;;;;;;;;;;112575;1231;61832;-71
2023/07/12 04:16:15;;;;;;;9.40;7.70;;;;;;;;;;112586;1229;58847;-71
2023/07/12 04:18:41;;;;;;;7.80;6.80;;;;;;;;;;112565;1230;58940;-71
2023/07/12 04:21:07;;;;;;;7.00;6.00;;;;;;;;;;112550;1230;58865;-71
2023/07/12 04:23:33;;;;;;;7.40;6.70;;;;;;;;;;112588;1230;58953;-71
2023/07/12 04:26:02;;;;;;;8.60;6.10;;;;;;;;;;112645;1230;58871;-71
2023/07/12 04:28:29;;;;;;;7.70;6.30;;;;;;;;;;112620;1229;58895;-71
2023/07/12 04:30:54;;;;;;;7.80;6.90;;;;;;;;;;112596;1229;58868;-71
2023/07/12 04:33:21;;;;;;;8.30;6.50;;;;;;;;;;112584;1230;59002;-71
2023/07/12 04:35:46;;;;;;;7.20;6.50;;;;;;;;;;112628;1230;58847;-71
2023/07/12 04:38:12;;;;;;;9.90;6.90;;;;;;;;;;112555;1232;58929;-70
2023/07/12 04:40:38;;;;;;;9.00;6.10;;;;;;;;;;112616;1230;58984;-70
2023/07/12 04:43:03;;;;;;;7.90;6.80;;;;;;;;;;112660;1231;58918;-70
2023/07/12 04:45:29;;;;;;;6.80;6.20;;;;;;;;;;112649;1231;59005;-71
2023/07/12 04:47:55;;;;;;;8.90;6.80;;;;;;;;;;112612;1231;58977;-70
2023/07/12 04:50:21;;;;;;;6.60;6.00;;;;;;;;;;112621;1230;58890;-70
2023/07/12 04:52:46;;;;;;;7.40;6.20;;;;;;;;;;112600;1230;58936;-70
2023/07/12 04:55:23;;;;;;;7.30;6.60;;;;;;;;;;112558;1229;58984;-70
2023/07/12 04:57:49;;;;;;;7.70;6.20;;;;;;;;;;112624;1229;58912;-70
2023/07/12 05:00:15;;;;;;;6.80;5.80;;;;;;;;;;112611;1230;59137;-70
2023/07/12 05:02:42;;;;;;;7.60;6.20;;;;;;;;;;112663;1229;59382;-70
2023/07/12 05:05:08;;;;;;;7.10;5.90;;;;;;;;;;112628;1229;58982;-70
2023/07/12 05:07:33;;;;;;;6.20;5.60;;;;;;;;;;112630;1230;58926;-70
2023/07/12 05:09:59;;;;;;;6.60;6.00;;;;;;;;;;112628;1231;58973;-71
2023/07/12 05:12:25;;;;;;;7.60;7.00;;;;;;;;;;112580;1230;59401;-70
2023/07/12 05:14:50;;;;;;;8.80;6.10;;;;;;;;;;112634;1230;58863;-71
2023/07/12 05:17:16;;;;;;;6.40;5.90;;;;;;;;;;112631;1231;59217;-70
2023/07/12 05:19:42;;;;;;;6.10;5.40;;;;;;;;;;112611;1230;59219;-70
2023/07/12 05:22:08;;;;;;;8.10;6.70;;;;;;;;;;112619;1230;59141;-71
2023/07/12 05:24:33;;;;;;;6.90;6.10;;;;;;;;;;112657;1229;58891;-70
2023/07/12 05:26:59;;;;;;;6.70;5.80;;;;;;;;;;112650;1231;59487;-70
2023/07/12 05:29:25;;;;;;;7.70;6.20;;;;;;;;;;112651;1230;58924;-70
2023/07/12 05:31:50;;;;;;;7.90;6.20;;;;;;;;;;112691;1230;58822;-70
2023/07/12 05:34:16;;;;;;;6.60;5.80;;;;;;;;;;112281;1231;59066;-70
2023/07/12 05:36:42;;;;;;;7.40;5.70;;;;;;;;;;112609;1230;58957;-70
2023/07/12 05:39:08;;;;;;;6.60;5.70;;;;;;;;;;112587;1231;59011;-70
2023/07/12 05:41:34;;;;;;;6.60;5.90;;;;;;;;;;112607;1230;58951;-70
2023/07/12 05:43:59;;;;;;;7.40;6.60;;;;;;;;;;112598;1230;58947;-70
2023/07/12 05:46:26;;;;;;;8.30;6.30;;;;;;;;;;112613;1230;58929;-71
2023/07/12 05:48:51;;;;;;;7.10;5.90;;;;;;;;;;112634;1231;58934;-70
2023/07/12 05:51:17;;;;;;;6.50;5.80;;;;;;;;;;112669;1234;58835;-70
2023/07/12 05:53:43;;;;;;;6.70;6.00;;;;;;;;;;112621;1230;61764;-70
2023/07/12 05:56:09;;;;;;;7.50;5.70;;;;;;;;;;112639;1230;58883;-70
2023/07/12 05:58:35;;;;;;;6.20;5.60;;;;;;;;;;112578;1230;59854;-70
2023/07/12 06:01:02;;;;;;;7.50;6.70;;;;;;;;;;112591;1231;59764;-71
2023/07/12 06:03:28;;;;;;;6.20;5.60;;;;;;;;;;112706;1230;58934;-71
2023/07/12 06:05:54;;;;;;;6.60;5.80;;;;;;;;;;112642;1233;58886;-71
2023/07/12 06:08:20;;;;;;;6.60;6.00;;;;;;;;;;112314;1231;59078;-69
2023/07/12 06:10:46;;;;;;;7.30;6.00;;;;;;;;;;112337;1231;59034;-70
2023/07/12 06:13:12;;;;;;;6.60;5.80;;;;;;;;;;112547;1230;58887;-70
2023/07/12 06:15:38;;;;;;;8.50;6.30;;;;;;;;;;112643;1230;58894;-70
2023/07/12 06:18:03;;;;;;;6.60;6.00;;;;;;;;;;112622;1231;58907;-70
2023/07/12 06:20:29;;;;;;;7.50;6.00;;;;;;;;;;112105;1230;59278;-70
2023/07/12 06:22:55;;;;;;;8.00;6.10;;;;;;;;;;112599;1230;58942;-70
2023/07/12 06:25:21;;;;;;;8.10;5.70;;;;;;;;;;112665;1231;58966;-70
2023/07/12 06:27:46;;;;;;;9.20;6.60;;;;;;;;;;112640;1230;59167;-70
2023/07/12 06:30:12;;;;;;;8.00;6.40;;;;;;;;;;112614;1233;59000;-71
2023/07/12 06:32:38;;;;;;;7.80;6.90;;;;;;;;;;112659;1230;59271;-70
2023/07/12 06:35:04;;;;;;;7.80;6.60;;;;;;;;;;112640;1233;58921;-72
2023/07/12 06:37:29;;;;;;;9.80;6.60;;;;;;;;;;112604;1230;59142;-70
2023/07/12 06:39:55;;;;;;;7.40;6.60;;;;;;;;;;112588;1233;58931;-70
2023/07/12 06:42:21;;;;;;;8.90;7.10;;;;;;;;;;112622;1230;59024;-70
2023/07/12 06:44:46;;;;;;;6.70;5.80;;;;;;;;;;112560;1229;58895;-70
2023/07/12 06:47:12;;;;;;;6.60;5.70;;;;;;;;;;112632;1230;59040;-71
2023/07/12 06:49:38;;;;;;;8.30;5.80;;;;;;;;;;112594;1231;58985;-71
2023/07/12 06:52:04;;;;;;;8.60;6.20;;;;;;;;;;112629;1230;59033;-70
2023/07/12 06:54:30;;;;;;;7.20;6.50;;;;;;;;;;112575;1230;58877;-71
2023/07/12 06:56:55;;;;;;;6.80;5.60;;;;;;;;;;112624;1231;58874;-71
2023/07/12 06:59:21;;;;;;;7.20;6.50;;;;;;;;;;112661;1230;58945;-71
2023/07/12 07:01:47;;;;;;;8.20;6.60;;;;;;;;;;112314;1230;58928;-71
2023/07/12 07:04:13;;;;;;;9.60;6.80;;;;;;;;;;112556;1230;58944;-70
2023/07/12 07:06:39;;;;;;;10.80;7.10;;;;;;;;;;112682;1230;58909;-70
2023/07/12 07:09:05;;;;;;;11.50;7.10;;;;;;;;;;112591;1233;60788;-71
2023/07/12 07:11:31;;;;;;;11.50;7.80;;;;;;;;;;112619;1231;58966;-71
2023/07/12 07:13:56;;;;;;;9.00;7.60;;;;;;;;;;112609;1231;58953;-71
2023/07/12 07:16:22;;;;;;;13.60;7.70;;;;;;;;;;112627;1231;58883;-71
2023/07/12 07:18:49;;;;;;;8.60;7.20;;;;;;;;;;112601;1231;58951;-71
2023/07/12 07:21:15;;;;;;;10.60;7.10;;;;;;;;;;112665;1230;59203;-71
2023/07/12 07:23:40;;;;;;;7.40;6.80;;;;;;;;;;112318;1231;58925;-71
2023/07/12 07:26:07;;;;;;;8.00;6.90;;;;;;;;;;112619;1230;59046;-71
2023/07/12 07:28:34;;;;;;;9.90;6.60;;;;;;;;;;112592;1231;58800;-72
2023/07/12 07:31:00;;;;;;;9.70;7.50;;;;;;;;;;112598;1234;58966;-71
2023/07/12 07:33:26;;;;;;;7.70;6.90;;;;;;;;;;112610;1231;58869;-70
2023/07/12 07:35:52;;;;;;;8.90;6.50;;;;;;;;;;112578;1232;58862;-70
2023/07/12 07:38:18;;;;;;;8.10;6.90;;;;;;;;;;112384;1231;177600;-71
2023/07/12 07:40:44;;;;;;;9.90;6.90;;;;;;;;;;112645;1231;58975;-71
2023/07/12 07:43:11;;;;;;;9.20;7.10;;;;;;;;;;112602;1230;58929;-71
2023/07/12 07:45:37;;;;;;;7.60;6.80;;;;;;;;;;112591;1230;58969;-71
2023/07/12 07:48:03;;;;;;;17.70;6.60;;;;;;;;;;112606;1231;58979;-71
2023/07/12 07:50:29;;;;;;;8.00;6.60;;;;;;;;;;112599;1231;58996;-71
2023/07/12 07:52:54;;;;;;;7.00;6.40;;;;;;;;;;112593;1230;59680;-71
2023/07/12 07:55:21;;;;;;;7.50;6.60;;;;;;;;;;112674;1230;58886;-71
2023/07/12 07:57:47;;;;;;;8.60;7.10;;;;;;;;;;112598;1230;59462;-70
2023/07/12 08:00:13;;;;;;;7.70;6.90;;;;;;;;;;112572;1231;58941;-71
2023/07/12 08:02:42;;;;;;;9.20;6.70;;;;;;;;;;112603;1230;58888;-71
2023/07/12 08:05:09;;;;;;;9.00;6.90;;;;;;;;;;112284;1231;60526;-71
2023/07/12 08:07:38;;;;;;;10.80;7.30;;;;;;;;;;112612;1230;58800;-71
2023/07/12 08:10:05;;;;;;;14.40;9.10;;;;;;;;;;112607;1230;59382;-71
2023/07/12 08:12:30;;;;;;;12.50;8.10;;;;;;;;;;112603;1232;58943;-71
2023/07/12 08:14:56;;;;;;;13.50;8.30;;;;;;;;;;112649;1232;58895;-71
2023/07/12 08:17:22;;;;;;;9.40;7.60;;;;;;;;;;112603;1231;58949;-71
2023/07/12 08:19:50;;;;;;;8.40;7.30;;;;;;;;;;112297;1230;58838;-71
2023/07/12 08:22:19;;;;;;;9.90;7.30;;;;;;;;;;112598;1232;58921;-70
2023/07/12 08:24:46;;;;;;;8.20;7.40;;;;;;;;;;112309;1232;58923;-71
2023/07/12 08:27:12;;;;;;;10.30;7.30;;;;;;;;;;112593;1232;58976;-71
2023/07/12 08:29:37;;;;;;;10.00;7.90;;;;;;;;;;112626;1231;58866;-71
2023/07/12 08:32:03;;;;;;;9.80;7.90;;;;;;;;;;112618;1232;58961;-70
2023/07/12 08:34:29;;;;;;;8.50;7.70;;;;;;;;;;112584;1230;58988;-71
2023/07/12 08:36:55;;;;;;;11.80;7.50;;;;;;;;;;112621;1230;58973;-72
2023/07/12 08:39:21;;;;;;;13.40;6.80;;;;;;;;;;112634;1232;58859;-72
2023/07/12 08:41:47;;;;;;;9.40;7.70;;;;;;;;;;112602;1231;59083;-72
2023/07/12 08:44:14;;;;;;;11.10;7.40;;;;;;;;;;112661;1232;58879;-72
2023/07/12 08:46:51;;;;;;;14.20;7.50;;;;;;;;;;112575;1232;58937;-71
2023/07/12 08:49:17;;;;;;;12.90;7.90;;;;;;;;;;112623;1230;59009;-71
2023/07/12 08:51:44;;;;;;;11.70;7.90;;;;;;;;;;112565;1232;58855;-71
2023/07/12 08:54:18;;;;;;;12.50;7.60;;;;;;;;;;112625;1231;59221;-71
2023/07/12 08:56:44;;;;;;;8.70;7.30;;;;;;;;;;112582;1230;58920;-70
2023/07/12 08:59:12;;;;;;;9.30;7.40;;;;;;;;;;112604;1231;58911;-71
2023/07/12 09:01:45;;;;;;;11.50;7.40;;;;;;;;;;112597;1230;58933;-70
2023/07/12 09:04:28;;;;;;;10.10;7.80;;;;;;;;;;112570;1232;62023;-71
2023/07/12 09:06:59;;;;;;;11.90;7.20;;;;;;;;;;112602;1231;58822;-71
2023/07/12 09:09:27;;;;;;;10.20;7.00;;;;;;;;;;112544;1231;58907;-71
2023/07/12 09:11:53;;;;;;;9.30;7.00;;;;;;;;;;112564;1232;58873;-71
2023/07/12 09:14:21;;;;;;;8.80;7.90;;;;;;;;;;112590;1230;58813;-71
2023/07/12 09:17:06;;;;;;;8.50;7.60;;;;;;;;;;112594;1231;61881;-71
2023/07/12 09:19:37;;;;;;;11.20;6.50;;;;;;;;;;112548;1231;58837;-71
2023/07/12 09:22:12;;;;;;;6.80;6.20;;;;;;;;;;112652;1231;59781;-72
2023/07/12 09:24:41;;;;;;;7.60;5.60;;;;;;;;;;112305;1232;58936;-72
2023/07/12 09:27:14;;;;;;;9.50;6.60;;;;;;;;;;112609;1231;58928;-71
2023/07/12 09:29:39;;;;;;;7.20;5.50;;;;;;;;;;112592;1232;61917;-72
2023/07/12 09:32:17;;;;;;;7.10;6.50;;;;;;;;;;112273;1230;59223;-72
2023/07/12 09:34:44;;;;;;;6.60;6.00;;;;;;;;;;112600;1230;59795;-71
2023/07/12 09:37:17;;;;;;;7.70;5.70;;;;;;;;;;112555;1230;58978;-71
2023/07/12 09:39:58;;;;;;;11.70;6.40;;;;;;;;;;112603;1230;58892;-71
2023/07/12 09:42:25;;;;;;;6.90;6.00;;;;;;;;;;112567;1232;60417;-71
2023/07/12 09:44:51;;;;;;;6.70;6.00;;;;;;;;;;112598;1230;59056;-71
2023/07/12 09:47:23;;;;;;;6.40;5.80;;;;;;;;;;112553;1230;59033;-71
2023/07/12 09:49:58;;;;;;;9.10;5.70;;;;;;;;;;112574;1232;58949;-72
2023/07/12 09:52:31;;;;;;;6.60;6.00;;;;;;;;;;112603;1230;58854;-72
2023/07/12 09:55:14;;;;;;;6.40;5.70;;;;;;;;;;112625;1231;60825;-71
2023/07/12 09:57:48;;;;;;;7.20;5.80;;;;;;;;;;112177;1230;59266;-71
2023/07/12 10:00:20;;;;;;;6.50;5.40;;;;;;;;;;112629;1231;59624;-71
2023/07/12 10:03:24;;;;;;;6.00;5.40;;;;;;;;;;112536;1232;58996;-71
2023/07/12 10:05:58;;;;;;;8.20;6.40;;;;;;;;;;111835;1237;59024;-71
2023/07/12 10:08:29;;;;;;;8.70;6.10;;;;;;;;;;111838;1239;61907;-71
2023/07/12 10:11:15;;;;;;;8.50;6.20;;;;;;;;;;111804;1238;58884;-71
2023/07/12 10:13:42;;;;;;;6.20;5.50;;;;;;;;;;111855;1237;59046;-71
2023/07/12 10:16:14;;;;;;;6.80;5.40;;;;;;;;;;111825;1237;59274;-71
2023/07/12 10:18:40;;;;;;;7.50;5.90;;;;;;;;;;111857;1238;58934;-70
2023/07/12 10:21:07;;;;;;;6.70;6.10;;;;;;;;;;111862;1238;59131;-71
2023/07/12 10:23:45;;;;;;;5.60;5.20;;;;;;;;;;111833;1238;59069;-70
2023/07/12 10:26:12;;;;;;;7.30;5.70;;;;;;;;;;111839;1237;59723;-71
2023/07/12 10:28:44;;;;;;;7.60;6.00;;;;;;;;;;111831;1237;59069;-71
2023/07/12 10:31:28;;;;;;;7.70;6.80;;;;;;;;;;111828;1238;59012;-70
2023/07/12 10:34:02;;;;;;;9.70;6.50;;;;;;;;;;111833;1238;61104;-71
2023/07/12 10:36:29;;;;;;;6.80;6.10;;;;;;;;;;112089;1232;58912;-72
2023/07/12 10:38:54;;;;;;;9.60;5.90;;;;;;;;;;112582;1231;59382;-71
2023/07/12 10:41:31;;;;;;;9.50;5.80;;;;;;;;;;112602;1231;59096;-72
2023/07/12 10:44:04;;;;;;;6.90;5.80;;;;;;;;;;112560;1230;59142;-72
2023/07/12 10:46:34;;;;;;;8.80;5.90;;;;;;;;;;112600;1230;60668;-72
2023/07/12 10:49:08;;;;;;;7.90;6.10;;;;;;;;;;112580;1232;58873;-72
2023/07/12 10:51:35;;;;;;;8.60;5.80;;;;;;;;;;112571;1230;58837;-71
2023/07/12 10:54:03;;;;;;;9.00;5.90;;;;;;;;;;112590;1230;58861;-71
2023/07/12 10:56:34;;;;;;;6.20;5.60;;;;;;;;;;112641;1230;59161;-72
2023/07/12 10:59:01;;;;;;;10.20;5.60;;;;;;;;;;112609;1230;62009;-71
2023/07/12 11:01:40;;;;;;;11.10;6.50;;;;;;;;;;112210;1230;59046;-71
2023/07/12 11:04:07;;;;;;;8.60;5.90;;;;;;;;;;112559;1231;59030;-71
2023/07/12 11:06:33;;;;;;;9.00;5.40;;;;;;;;;;112619;1230;58935;-71
2023/07/12 11:09:01;;;;;;;6.60;6.00;;;;;;;;;;112641;1230;58929;-72
2023/07/12 11:11:29;;;;;;;6.20;5.60;;;;;;;;;;112584;1231;60725;-71
2023/07/12 11:14:05;;;;;;;6.60;5.50;;;;;;;;;;112644;1232;58823;-71
2023/07/12 11:16:32;;;;;;;6.10;5.50;;;;;;;;;;112607;1230;58889;-70
2023/07/12 11:18:58;;;;;;;8.60;5.90;;;;;;;;;;112589;1231;58997;-70
2023/07/12 11:21:26;;;;;;;6.40;5.40;;;;;;;;;;112636;1230;58924;-70
2023/07/12 11:23:52;;;;;;;7.70;5.20;;;;;;;;;;112640;1231;62624;-71
2023/07/12 11:26:18;;;;;;;7.20;5.50;;;;;;;;;;112651;1230;58868;-70
2023/07/12 11:28:44;;;;;;;7.90;5.60;;;;;;;;;;112594;1230;58923;-70
2023/07/12 11:31:18;;;;;;;6.90;5.70;;;;;;;;;;112640;1230;58921;-70
2023/07/12 11:33:47;;;;;;;6.30;5.50;;;;;;;;;;112582;1230;58837;-71
2023/07/12 11:36:18;;;;;;;6.00;5.30;;;;;;;;;;112605;1232;60516;-70
2023/07/12 11:38:46;;;;;;;5.90;5.30;;;;;;;;;;112670;1230;58855;-71
2023/07/12 11:41:14;;;;;;;6.80;6.00;;;;;;;;;;112584;1230;58945;-71
2023/07/12 11:43:40;;;;;;;6.60;6.10;;;;;;;;;;112266;1230;58996;-71
2023/07/12 11:46:13;;;;;;;7.70;5.60;;;;;;;;;;112610;1230;58819;-69
2023/07/12 11:48:42;;;;;;;7.80;6.30;;;;;;;;;;112604;1232;61926;-70
2023/07/12 11:51:16;;;;;;;8.50;5.40;;;;;;;;;;112534;1230;58908;-70
2023/07/12 11:53:49;;;;;;;8.10;6.70;;;;;;;;;;112600;1230;59819;-71
2023/07/12 11:56:15;;;;;;;7.50;6.70;;;;;;;;;;112593;1230;58949;-71
2023/07/12 11:58:41;;;;;;;7.90;6.70;;;;;;;;;;112620;1231;58972;-72
2023/07/12 12:01:12;;;;;;;7.90;6.90;;;;;;;;;;112623;1230;58952;-71
2023/07/12 12:03:40;;;;;;;8.10;6.70;;;;;;;;;;112612;1230;58869;-70
2023/07/12 12:06:07;;;;;;;8.10;6.40;;;;;;;;;;112640;1230;58936;-70
2023/07/12 12:08:34;;;;;;;7.90;6.90;;;;;;;;;;112569;1230;58977;-70
2023/07/12 12:11:00;;;;;;;7.90;6.60;;;;;;;;;;112582;1230;58941;-71
2023/07/12 12:13:29;;;;;;;9.20;6.70;;;;;;;;;;112656;1231;58928;-71
2023/07/12 12:16:01;;;;;;;8.00;6.10;;;;;;;;;;112612;1230;58901;-71
2023/07/12 12:18:26;;;;;;;7.60;6.80;;;;;;;;;;112602;1230;60058;-70
2023/07/12 12:20:55;;;;;;;7.60;6.20;;;;;;;;;;112587;1230;58881;-70
2023/07/12 12:23:26;;;;;;;7.60;6.80;;;;;;;;;;112572;1230;59016;-70
2023/07/12 12:25:52;;;;;;;6.80;6.20;;;;;;;;;;112624;1230;61964;-71
2023/07/12 12:28:20;;;;;;;12.10;8.00;;;;;;;;;;112582;1230;58865;-71
2023/07/12 12:30:56;;;;;;;10.40;7.00;;;;;;;;;;112598;1230;59494;-70
2023/07/12 12:33:23;;;;;;;7.30;6.50;;;;;;;;;;112605;1230;58914;-70
2023/07/12 12:35:55;;;;;;;7.30;6.50;;;;;;;;;;112602;1230;58772;-71
2023/07/12 12:38:25;;;;;;;8.60;6.50;;;;;;;;;;112540;1230;60389;-71
2023/07/12 12:40:52;;;;;;;10.00;6.40;;;;;;;;;;112174;1230;58907;-71
2023/07/12 12:43:19;;;;;;;7.90;6.70;;;;;;;;;;112617;1230;58886;-71
2023/07/12 12:45:45;;;;;;;8.40;6.50;;;;;;;;;;112562;1230;58949;-71
2023/07/12 12:48:11;;;;;;;8.40;6.70;;;;;;;;;;112602;1233;59296;-71
2023/07/12 12:50:38;;;;;;;7.40;6.70;;;;;;;;;;112619;1231;58874;-71
2023/07/12 12:53:05;;;;;;;6.60;6.00;;;;;;;;;;112618;1230;58936;-71
2023/07/12 12:55:33;;;;;;;8.70;6.30;;;;;;;;;;112562;1230;59007;-71
2023/07/12 12:57:59;;;;;;;6.40;5.70;;;;;;;;;;112564;1230;58931;-71
2023/07/12 13:00:26;;;;;;;8.80;6.10;;;;;;;;;;112634;1230;59002;-71
2023/07/12 13:02:53;;;;;;;6.80;6.10;;;;;;;;;;112604;1230;61946;-71
2023/07/12 13:05:19;;;;;;;6.20;5.60;;;;;;;;;;112592;1230;59125;-71
2023/07/12 13:07:45;;;;;;;7.40;6.10;;;;;;;;;;112678;1230;58878;-69
2023/07/12 13:10:15;;;;;;;7.40;6.00;;;;;;;;;;112595;1230;58799;-71
2023/07/12 13:12:42;;;;;;;6.30;5.80;;;;;;;;;;112623;1230;58730;-70
2023/07/12 13:15:12;;;;;;;6.70;6.00;;;;;;;;;;112576;1231;61909;-71
2023/07/12 13:17:38;;;;;;;6.90;6.30;;;;;;;;;;112584;1231;58889;-71
2023/07/12 13:20:04;;;;;;;6.90;6.20;;;;;;;;;;112602;1230;59586;-70
2023/07/12 13:22:30;;;;;;;7.50;6.10;;;;;;;;;;111952;1231;58936;-71
2023/07/12 13:24:56;;;;;;;6.90;6.30;;;;;;;;;;112620;1230;58984;-70
2023/07/12 13:27:22;;;;;;;6.10;5.60;;;;;;;;;;112612;1231;58901;-70
2023/07/12 13:29:51;;;;;;;9.80;6.00;;;;;;;;;;112652;1231;58884;-71
2023/07/12 13:32:17;;;;;;;;;;;;;;;;;;112593;1230;58869;-71
2023/07/12 13:34:43;;;;;;;7.20;6.70;;;;;;;;;;112621;1230;58981;-72
2023/07/12 13:37:16;;;;;;;6.70;5.60;;;;;;;;;;112635;1230;58896;-71
2023/07/12 13:39:42;;;;;;;6.60;5.90;;;;;;;;;;112640;1230;61694;-71
2023/07/12 13:42:08;;;;;;;7.90;5.90;;;;;;;;;;112602;1230;58861;-71
2023/07/12 13:44:34;;;;;;;7.90;6.20;;;;;;;;;;112619;1231;58789;-70
2023/07/12 13:47:00;;;;;;;8.30;6.40;;;;;;;;;;112607;1231;58974;-70
2023/07/12 13:49:26;;;;;;;8.30;6.20;;;;;;;;;;112643;1230;59289;-72
2023/07/12 13:51:51;;;;;;;6.90;5.70;;;;;;;;;;112632;1230;58980;-70
2023/07/12 13:54:19;;;;;;;7.10;6.20;;;;;;;;;;112616;1230;59027;-71
2023/07/12 13:56:45;;;;;;;8.00;6.40;;;;;;;;;;112548;1230;58919;-70
2023/07/12 13:59:11;;;;;;;6.70;6.00;;;;;;;;;;112553;1231;59180;-70
2023/07/12 14:01:37;;;;;;;6.90;6.30;;;;;;;;;;112686;1230;58972;-71
2023/07/12 14:04:04;;;;;;;6.00;5.40;;;;;;;;;;112649;1230;58928;-71
2023/07/12 14:06:30;;;;;;;6.20;5.60;;;;;;;;;;112594;1230;59672;-70
2023/07/12 14:08:56;;;;;;;6.30;5.70;;;;;;;;;;112622;1230;58941;-70
2023/07/12 14:11:21;;;;;;;6.30;5.20;;;;;;;;;;112667;1231;58987;-71
2023/07/12 14:13:47;;;;;;;6.00;5.40;;;;;;;;;;112642;1230;58810;-71
2023/07/12 14:16:13;;;;;;;6.00;5.50;;;;;;;;;;112593;1230;58949;-71
2023/07/12 14:18:38;;;;;;;5.30;4.80;;;;;;;;;;112633;1230;58971;-70
2023/07/12 14:21:10;;;;;;;5.40;4.80;;;;;;;;;;112614;1230;58855;-70
2023/07/12 14:23:36;;;;;;;6.00;5.10;;;;;;;;;;112539;1231;61916;-71
2023/07/12 14:26:02;;;;;;;6.60;6.00;;;;;;;;;;112669;1229;59058;-71
2023/07/12 14:28:28;;;;;;;5.30;4.70;;;;;;;;;;112597;1230;58903;-72
2023/07/12 14:30:54;;;;;;;6.70;5.10;;;;;;;;;;112578;1230;59020;-71